createdAt,value
2019-06-08T00:04:45.069Z,15.10
2019-06-08T00:10:10.729Z,15.85
2019-06-08T00:15:35.592Z,16.35
2019-06-08T00:20:59.282Z,17.32
2019-06-08T00:26:24.411Z,17.95
2019-06-08T00:31:49.059Z,18.82
2019-06-08T00:37:13.061Z,18.17
2019-06-08T00:42:37.907Z,18.65
2019-06-08T00:48:05.024Z,19.82
2019-06-08T00:53:29.715Z,19.85
2019-06-08T00:58:53.763Z,19.32
2019-06-08T01:04:27.138Z,20.92
2019-06-08T01:09:51.222Z,20.10
2019-06-08T01:15:16.596Z,20.20
2019-06-08T01:20:41.336Z,20.45
2019-06-08T01:26:05.704Z,20.90
2019-06-08T01:31:30.572Z,20.48
2019-06-08T01:36:54.387Z,20.62
2019-06-08T01:42:19.025Z,20.57
2019-06-08T01:47:42.782Z,21.73
2019-06-08T01:53:06.730Z,20.68
2019-06-08T01:58:31.618Z,21.05
2019-06-08T02:03:56.012Z,9.05
2019-06-08T02:09:20.606Z,5.17
2019-06-08T02:14:45.342Z,3.58
2019-06-08T02:20:11.872Z,3.40
2019-06-08T02:25:35.854Z,2.50
2019-06-08T02:30:59.677Z,2.20
2019-06-08T02:36:24.296Z,1.85
2019-06-08T02:41:49.052Z,2.15
2019-06-08T02:47:16.312Z,1.90
2019-06-08T02:52:40.895Z,1.62
2019-06-08T02:58:06.275Z,2.00
2019-06-08T03:03:35.778Z,1.75
2019-06-08T03:09:01.769Z,1.65
2019-06-08T03:14:28.011Z,1.60
2019-06-08T03:19:52.405Z,1.87
2019-06-08T03:25:16.910Z,1.60
2019-06-08T03:30:47.405Z,1.40
2019-06-08T03:36:06.994Z,1.20
2019-06-08T03:41:31.453Z,1.72
2019-06-08T03:46:55.075Z,1.95
2019-06-08T03:52:18.966Z,1.95
2019-06-08T03:57:44.083Z,1.87
2019-06-08T04:03:09.132Z,2.08
2019-06-08T04:08:32.995Z,1.90
2019-06-08T04:13:56.827Z,1.85
2019-06-08T04:19:21.379Z,1.50
2019-06-08T04:24:46.643Z,2.58
2019-06-08T04:30:12.170Z,1.60
2019-06-08T04:35:35.812Z,1.60
2019-06-08T04:41:00.877Z,1.62
2019-06-08T04:46:27.977Z,1.60
2019-06-08T04:51:52.690Z,1.40
2019-06-08T04:57:21.689Z,1.55
2019-06-08T05:02:48.859Z,1.70
2019-06-08T05:08:12.584Z,1.57
2019-06-08T05:13:36.811Z,1.50
2019-06-08T05:19:01.297Z,1.40
2019-06-08T05:24:27.016Z,1.77
2019-06-08T05:29:50.873Z,1.52
2019-06-08T05:35:14.782Z,1.57
2019-06-08T05:40:39.636Z,1.45
2019-06-08T05:46:04.069Z,1.45
2019-06-08T05:51:28.888Z,1.57
2019-06-08T05:56:53.131Z,1.65
2019-06-08T06:02:17.275Z,1.25
2019-06-08T06:07:42.660Z,1.22
2019-06-08T06:13:07.240Z,1.35
2019-06-08T06:18:31.670Z,1.20
2019-06-08T06:23:55.334Z,1.25
2019-06-08T06:29:20.255Z,1.27
2019-06-08T06:34:45.799Z,1.15
2019-06-08T06:40:10.237Z,1.00
2019-06-08T06:45:34.982Z,1.00
2019-06-08T06:50:59.866Z,1.20
2019-06-08T06:56:23.464Z,1.10
2019-06-08T07:01:53.674Z,1.47
2019-06-08T07:07:15.427Z,3.15
2019-06-08T07:12:39.466Z,1.25
2019-06-08T07:18:04.798Z,1.40
2019-06-08T07:23:29.510Z,1.35
2019-06-08T07:28:55.388Z,0.90
2019-06-08T07:34:20.444Z,1.62
2019-06-08T07:39:44.849Z,1.60
2019-06-08T07:45:09.750Z,0.90
2019-06-08T07:50:34.254Z,0.93
2019-06-08T07:55:58.077Z,1.10
2019-06-08T08:01:35.681Z,1.10
2019-06-08T08:06:50.332Z,1.12
2019-06-08T08:12:15.347Z,1.40
2019-06-08T08:17:39.729Z,1.25
2019-06-08T08:23:06.947Z,1.17
2019-06-08T08:28:30.834Z,1.02
2019-06-08T08:33:55.927Z,1.52
2019-06-08T08:39:21.059Z,1.20
2019-06-08T08:44:45.024Z,1.25
2019-06-08T08:50:09.977Z,1.10
2019-06-08T08:55:34.708Z,1.15
2019-06-08T09:01:01.556Z,1.50
2019-06-08T09:06:24.820Z,1.50
2019-06-08T09:11:49.544Z,1.70
2019-06-08T09:17:13.605Z,1.62
2019-06-08T09:22:52.584Z,1.67
2019-06-08T09:28:04.907Z,1.30
2019-06-08T09:33:30.047Z,2.42
2019-06-08T09:38:55.991Z,1.67
2019-06-08T09:44:19.409Z,1.20
2019-06-08T09:49:44.134Z,1.10
2019-06-08T09:55:09.293Z,2.15
2019-06-08T10:00:33.780Z,1.20
2019-06-08T10:06:01.493Z,1.35
2019-06-08T10:11:23.181Z,1.27
2019-06-08T10:16:47.764Z,1.22
2019-06-08T10:22:11.541Z,1.47
2019-06-08T10:27:38.593Z,1.27
2019-06-08T10:33:05.196Z,1.40
2019-06-08T10:38:29.329Z,1.70
2019-06-08T10:43:54.027Z,1.42
2019-06-08T10:49:18.866Z,1.67
2019-06-08T10:54:43.808Z,1.20
2019-06-08T11:00:18.013Z,1.42
2019-06-08T11:05:34.506Z,1.20
2019-06-08T11:11:00.009Z,1.12
2019-06-08T11:16:24.111Z,1.47
2019-06-08T11:21:48.950Z,1.87
2019-06-08T11:27:13.356Z,2.10
2019-06-08T11:32:38.483Z,1.72
2019-06-08T11:38:03.868Z,1.40
2019-06-08T11:43:28.741Z,1.60
2019-06-08T11:48:53.921Z,1.55
2019-06-08T11:54:32.829Z,1.57
2019-06-08T11:59:44.711Z,1.50
2019-06-08T12:05:12.665Z,1.47
2019-06-08T12:10:35.130Z,1.50
2019-06-08T12:15:59.931Z,2.17
2019-06-08T12:21:24.489Z,1.95
2019-06-08T12:26:52.731Z,1.95
2019-06-08T12:32:16.270Z,1.77
2019-06-08T12:37:40.025Z,1.82
2019-06-08T12:43:04.848Z,1.75
2019-06-08T12:48:29.396Z,1.42
2019-06-08T12:53:54.120Z,1.72
2019-06-08T12:59:22.521Z,2.08
2019-06-08T13:04:44.495Z,1.40
2019-06-08T13:10:09.223Z,2.15
2019-06-08T13:15:33.011Z,1.80
2019-06-08T13:21:00.412Z,1.85
2019-06-08T13:26:27.858Z,2.05
2019-06-08T13:31:48.779Z,1.77
2019-06-08T13:37:57.617Z,1.92
2019-06-08T13:43:22.766Z,1.82
2019-06-08T13:48:48.202Z,2.08
2019-06-08T13:54:12.778Z,1.87
2019-06-08T13:59:39.011Z,1.82
2019-06-08T14:05:04.107Z,2.22
2019-06-08T14:10:38.545Z,1.62
2019-06-08T14:16:03.267Z,2.33
2019-06-08T14:21:34.163Z,1.80
2019-06-08T14:26:54.336Z,2.10
2019-06-08T14:32:20.416Z,1.70
2019-06-08T14:37:44.531Z,1.87
2019-06-08T14:43:10.777Z,1.47
2019-06-08T14:48:34.661Z,1.75
2019-06-08T14:53:59.285Z,1.60
2019-06-08T14:59:23.876Z,1.47
2019-06-08T15:04:48.832Z,1.60
2019-06-08T15:10:13.631Z,1.25
2019-06-08T15:15:38.401Z,1.40
2019-06-08T15:21:02.881Z,1.47
2019-06-08T15:26:36.464Z,1.42
2019-06-08T15:31:53.459Z,1.40
2019-06-08T15:37:18.557Z,1.40
2019-06-08T15:42:43.566Z,1.70
2019-06-08T15:48:08.233Z,1.50
2019-06-08T15:53:34.075Z,1.52
2019-06-08T15:58:58.926Z,1.10
2019-06-08T16:04:23.830Z,1.72
2019-06-08T16:09:52.558Z,1.40
2019-06-08T16:15:17.206Z,1.55
2019-06-08T16:20:41.821Z,1.65
2019-06-08T16:26:06.275Z,1.30
2019-06-08T16:31:31.099Z,1.42
2019-06-08T16:36:54.938Z,1.35
2019-06-08T16:42:19.781Z,2.17
2019-06-08T16:47:44.456Z,1.55
2019-06-08T16:53:09.190Z,1.92
2019-06-08T16:58:34.267Z,1.50
2019-06-08T17:03:58.808Z,1.52
2019-06-08T17:09:22.473Z,1.70
2019-06-08T17:14:46.181Z,1.70
2019-06-08T17:20:11.363Z,1.42
2019-06-08T17:25:36.623Z,1.30
2019-06-08T17:31:00.200Z,1.77
2019-06-08T17:36:24.941Z,1.35
2019-06-08T17:41:49.356Z,1.22
2019-06-08T17:47:14.149Z,1.27
2019-06-08T17:52:39.061Z,1.50
2019-06-08T17:58:03.248Z,1.30
2019-06-08T18:03:28.037Z,1.40
2019-06-08T18:08:51.862Z,1.62
2019-06-08T18:14:18.059Z,1.52
2019-06-08T18:19:45.973Z,1.25
2019-06-08T18:25:07.851Z,1.87
2019-06-08T18:30:32.287Z,1.65
2019-06-08T18:35:57.678Z,1.60
2019-06-08T18:41:22.341Z,1.37
2019-06-08T18:46:48.264Z,1.70
2019-06-08T18:52:13.723Z,1.98
2019-06-08T18:57:39.864Z,1.57
2019-06-08T19:03:03.739Z,1.90
2019-06-08T19:08:28.168Z,1.65
2019-06-08T19:13:54.238Z,1.55
2019-06-08T19:19:20.029Z,2.08
2019-06-08T19:24:45.408Z,1.72
2019-06-08T19:30:09.684Z,2.35
2019-06-08T19:35:34.876Z,1.80
2019-06-08T19:40:59.847Z,2.33
2019-06-08T19:46:27.022Z,2.40
2019-06-08T19:51:53.886Z,2.20
2019-06-08T19:57:17.466Z,2.22
2019-06-08T20:02:42.604Z,2.53
2019-06-08T20:08:08.103Z,3.00
2019-06-08T20:13:33.303Z,2.50
2019-06-08T20:18:58.327Z,2.10
2019-06-08T20:24:22.262Z,2.10
2019-06-08T20:29:48.248Z,2.87
2019-06-08T20:35:11.707Z,2.60
2019-06-08T20:40:35.409Z,2.90
2019-06-08T20:46:00.845Z,3.20
2019-06-08T20:51:27.708Z,2.63
2019-06-08T20:56:52.139Z,2.83
2019-06-08T21:02:17.837Z,2.83
2019-06-08T21:07:43.796Z,3.10
2019-06-08T21:13:08.445Z,3.50
2019-06-08T21:18:32.420Z,3.10
2019-06-08T21:24:00.807Z,5.27
2019-06-08T21:29:22.272Z,3.93
2019-06-08T21:34:51.738Z,4.33
2019-06-08T21:40:13.428Z,4.40
2019-06-08T21:45:38.146Z,4.60
2019-06-08T21:51:01.986Z,5.13
2019-06-08T21:56:29.682Z,4.00
2019-06-08T22:01:59.067Z,4.37
2019-06-08T22:07:21.039Z,3.87
2019-06-08T22:12:44.735Z,3.50
2019-06-08T22:18:09.241Z,4.70
2019-06-08T22:23:33.023Z,4.80
2019-06-08T22:28:58.395Z,4.80
2019-06-08T22:34:22.360Z,7.93
2019-06-08T22:39:47.928Z,7.27
2019-06-08T22:45:11.974Z,15.70
2019-06-08T22:50:38.194Z,25.10
2019-06-08T22:56:04.536Z,15.50
2019-06-08T23:01:28.631Z,14.43
2019-06-08T23:06:52.459Z,11.00
2019-06-08T23:12:18.180Z,9.57
2019-06-08T23:17:43.597Z,10.30
2019-06-08T23:23:09.042Z,7.20
2019-06-08T23:28:33.156Z,4.67
2019-06-08T23:34:00.275Z,4.20
2019-06-08T23:39:23.369Z,3.23
2019-06-08T23:44:48.157Z,3.20
2019-06-08T23:50:13.074Z,3.70
2019-06-08T23:55:37.693Z,3.40
